sensor_id;sensor_type;location;lat;lon;timestamp;P1;durP1;ratioP1;P2;durP2;ratioP2
948;SDS011;461;51.436;7.312;2023-10-08T00:06:27;9.17;;;4.80;;
948;SDS011;461;51.436;7.312;2023-10-08T00:08:53;9.13;;;4.70;;
948;SDS011;461;51.436;7.312;2023-10-08T00:11:25;9.00;;;3.87;;
948;SDS011;461;51.436;7.312;2023-10-08T00:13:51;10.70;;;4.07;;
948;SDS011;461;51.436;7.312;2023-10-08T00:16:21;5.67;;;4.80;;
948;SDS011;461;51.436;7.312;2023-10-08T00:18:47;9.83;;;5.33;;
948;SDS011;461;51.436;7.312;2023-10-08T00:21:17;6.60;;;4.40;;
948;SDS011;461;51.436;7.312;2023-10-08T00:23:45;8.23;;;4.93;;
948;SDS011;461;51.436;7.312;2023-10-08T00:26:21;6.17;;;3.90;;
948;SDS011;461;51.436;7.312;2023-10-08T00:28:55;8.23;;;4.70;;
948;SDS011;461;51.436;7.312;2023-10-08T00:31:21;7.47;;;4.63;;
948;SDS011;461;51.436;7.312;2023-10-08T00:33:51;8.77;;;4.23;;
948;SDS011;461;51.436;7.312;2023-10-08T00:36:18;10.53;;;5.30;;
948;SDS011;461;51.436;7.312;2023-10-08T00:38:45;8.33;;;4.60;;
948;SDS011;461;51.436;7.312;2023-10-08T00:41:15;9.63;;;4.50;;
948;SDS011;461;51.436;7.312;2023-10-08T00:43:41;5.77;;;4.10;;
948;SDS011;461;51.436;7.312;2023-10-08T00:46:10;4.93;;;3.90;;
948;SDS011;461;51.436;7.312;2023-10-08T00:48:48;11.60;;;5.00;;
948;SDS011;461;51.436;7.312;2023-10-08T00:51:15;7.47;;;4.20;;
948;SDS011;461;51.436;7.312;2023-10-08T00:56:17;10.47;;;4.50;;
948;SDS011;461;51.436;7.312;2023-10-08T00:58:45;9.20;;;4.37;;
948;SDS011;461;51.436;7.312;2023-10-08T01:01:15;10.43;;;4.00;;
948;SDS011;461;51.436;7.312;2023-10-08T01:03:42;8.80;;;4.07;;
948;SDS011;461;51.436;7.312;2023-10-08T01:06:13;8.37;;;4.17;;
948;SDS011;461;51.436;7.312;2023-10-08T01:08:43;5.33;;;4.40;;
948;SDS011;461;51.436;7.312;2023-10-08T01:13:45;7.57;;;4.40;;
948;SDS011;461;51.436;7.312;2023-10-08T01:16:12;8.10;;;4.40;;
948;SDS011;461;51.436;7.312;2023-10-08T01:18:39;7.87;;;4.47;;
948;SDS011;461;51.436;7.312;2023-10-08T01:21:08;6.60;;;3.80;;
948;SDS011;461;51.436;7.312;2023-10-08T01:23:44;8.03;;;4.33;;
948;SDS011;461;51.436;7.312;2023-10-08T01:26:13;13.20;;;4.73;;
948;SDS011;461;51.436;7.312;2023-10-08T01:28:40;8.97;;;4.50;;
948;SDS011;461;51.436;7.312;2023-10-08T01:31:08;7.63;;;3.93;;
948;SDS011;461;51.436;7.312;2023-10-08T01:33:37;10.00;;;5.40;;
948;SDS011;461;51.436;7.312;2023-10-08T01:36:08;8.57;;;4.53;;
948;SDS011;461;51.436;7.312;2023-10-08T01:38:38;8.30;;;5.27;;
948;SDS011;461;51.436;7.312;2023-10-08T01:41:06;7.97;;;4.27;;
948;SDS011;461;51.436;7.312;2023-10-08T01:43:44;7.03;;;4.00;;
948;SDS011;461;51.436;7.312;2023-10-08T01:46:10;7.90;;;4.13;;
948;SDS011;461;51.436;7.312;2023-10-08T01:48:37;7.03;;;4.80;;
948;SDS011;461;51.436;7.312;2023-10-08T01:51:04;8.70;;;4.30;;
948;SDS011;461;51.436;7.312;2023-10-08T01:53:42;8.73;;;4.80;;
948;SDS011;461;51.436;7.312;2023-10-08T01:56:08;5.70;;;4.20;;
948;SDS011;461;51.436;7.312;2023-10-08T01:58:35;8.70;;;5.20;;
948;SDS011;461;51.436;7.312;2023-10-08T02:01:02;9.13;;;4.03;;
948;SDS011;461;51.436;7.312;2023-10-08T02:03:30;8.30;;;4.50;;
948;SDS011;461;51.436;7.312;2023-10-08T02:05:56;11.70;;;4.83;;
948;SDS011;461;51.436;7.312;2023-10-08T02:08:25;11.30;;;5.33;;
948;SDS011;461;51.436;7.312;2023-10-08T02:10:51;7.13;;;4.60;;
948;SDS011;461;51.436;7.312;2023-10-08T02:13:17;7.47;;;4.13;;
948;SDS011;461;51.436;7.312;2023-10-08T02:15:45;10.00;;;4.37;;
948;SDS011;461;51.436;7.312;2023-10-08T02:18:12;8.00;;;5.03;;
948;SDS011;461;51.436;7.312;2023-10-08T02:20:39;8.17;;;4.77;;
948;SDS011;461;51.436;7.312;2023-10-08T02:23:06;6.57;;;3.83;;
948;SDS011;461;51.436;7.312;2023-10-08T02:25:32;11.97;;;5.10;;
948;SDS011;461;51.436;7.312;2023-10-08T02:28:03;7.57;;;4.00;;
948;SDS011;461;51.436;7.312;2023-10-08T02:30:29;8.13;;;4.23;;
948;SDS011;461;51.436;7.312;2023-10-08T02:32:56;8.87;;;5.50;;
948;SDS011;461;51.436;7.312;2023-10-08T02:35:23;10.93;;;4.90;;
948;SDS011;461;51.436;7.312;2023-10-08T02:37:49;8.57;;;4.53;;
948;SDS011;461;51.436;7.312;2023-10-08T02:40:15;13.27;;;4.90;;
948;SDS011;461;51.436;7.312;2023-10-08T02:42:50;13.30;;;4.80;;
948;SDS011;461;51.436;7.312;2023-10-08T02:45:16;10.87;;;4.60;;
948;SDS011;461;51.436;7.312;2023-10-08T02:47:43;10.07;;;5.27;;
948;SDS011;461;51.436;7.312;2023-10-08T02:50:12;7.60;;;3.70;;
948;SDS011;461;51.436;7.312;2023-10-08T02:52:43;13.70;;;6.00;;
948;SDS011;461;51.436;7.312;2023-10-08T02:55:12;15.57;;;6.07;;
948;SDS011;461;51.436;7.312;2023-10-08T02:57:59;7.60;;;4.87;;
948;SDS011;461;51.436;7.312;2023-10-08T03:00:27;13.57;;;5.40;;
948;SDS011;461;51.436;7.312;2023-10-08T03:02:59;12.77;;;4.67;;
948;SDS011;461;51.436;7.312;2023-10-08T03:05:27;8.60;;;4.10;;
948;SDS011;461;51.436;7.312;2023-10-08T03:08:01;6.80;;;5.30;;
948;SDS011;461;51.436;7.312;2023-10-08T03:10:27;7.87;;;4.33;;
948;SDS011;461;51.436;7.312;2023-10-08T03:12:59;8.90;;;5.40;;
948;SDS011;461;51.436;7.312;2023-10-08T03:15:31;8.17;;;4.50;;
948;SDS011;461;51.436;7.312;2023-10-08T03:18:18;9.90;;;5.97;;
948;SDS011;461;51.436;7.312;2023-10-08T03:20:46;12.03;;;5.63;;
948;SDS011;461;51.436;7.312;2023-10-08T03:23:14;11.03;;;5.60;;
948;SDS011;461;51.436;7.312;2023-10-08T03:26:01;13.27;;;6.03;;
948;SDS011;461;51.436;7.312;2023-10-08T03:28:35;8.67;;;4.43;;
948;SDS011;461;51.436;7.312;2023-10-08T03:31:02;9.27;;;5.00;;
948;SDS011;461;51.436;7.312;2023-10-08T03:33:41;15.10;;;6.33;;
948;SDS011;461;51.436;7.312;2023-10-08T03:36:08;10.80;;;5.53;;
948;SDS011;461;51.436;7.312;2023-10-08T03:38:47;10.73;;;5.17;;
948;SDS011;461;51.436;7.312;2023-10-08T03:41:18;13.07;;;8.00;;
948;SDS011;461;51.436;7.312;2023-10-08T03:43:45;9.83;;;5.13;;
948;SDS011;461;51.436;7.312;2023-10-08T03:46:19;12.33;;;6.37;;
948;SDS011;461;51.436;7.312;2023-10-08T03:48:46;10.93;;;5.00;;
948;SDS011;461;51.436;7.312;2023-10-08T03:51:22;11.03;;;6.10;;
948;SDS011;461;51.436;7.312;2023-10-08T03:53:51;7.60;;;5.13;;
948;SDS011;461;51.436;7.312;2023-10-08T03:56:27;11.10;;;5.53;;
948;SDS011;461;51.436;7.312;2023-10-08T03:58:57;8.70;;;5.03;;
948;SDS011;461;51.436;7.312;2023-10-08T04:01:28;8.53;;;4.80;;
948;SDS011;461;51.436;7.312;2023-10-08T04:03:59;12.50;;;5.00;;
948;SDS011;461;51.436;7.312;2023-10-08T04:06:26;9.63;;;5.10;;
948;SDS011;461;51.436;7.312;2023-10-08T04:09:01;10.60;;;5.07;;
948;SDS011;461;51.436;7.312;2023-10-08T04:11:30;12.20;;;5.20;;
948;SDS011;461;51.436;7.312;2023-10-08T04:13:57;10.20;;;5.00;;
948;SDS011;461;51.436;7.312;2023-10-08T04:16:27;7.07;;;4.77;;
948;SDS011;461;51.436;7.312;2023-10-08T04:18:53;12.77;;;5.37;;
948;SDS011;461;51.436;7.312;2023-10-08T04:21:21;13.07;;;4.97;;
948;SDS011;461;51.436;7.312;2023-10-08T04:23:47;11.40;;;4.73;;
948;SDS011;461;51.436;7.312;2023-10-08T04:26:18;10.60;;;5.50;;
948;SDS011;461;51.436;7.312;2023-10-08T04:28:52;8.43;;;4.77;;
948;SDS011;461;51.436;7.312;2023-10-08T04:31:31;14.57;;;5.87;;
948;SDS011;461;51.436;7.312;2023-10-08T04:34:05;21.03;;;7.47;;
948;SDS011;461;51.436;7.312;2023-10-08T04:36:47;9.23;;;5.30;;
948;SDS011;461;51.436;7.312;2023-10-08T04:39:20;14.80;;;6.40;;
948;SDS011;461;51.436;7.312;2023-10-08T04:41:59;9.83;;;5.57;;
948;SDS011;461;51.436;7.312;2023-10-08T04:44:32;15.37;;;6.73;;
948;SDS011;461;51.436;7.312;2023-10-08T04:46:58;10.20;;;5.93;;
948;SDS011;461;51.436;7.312;2023-10-08T04:49:30;10.30;;;5.57;;
948;SDS011;461;51.436;7.312;2023-10-08T04:54:27;9.67;;;5.70;;
948;SDS011;461;51.436;7.312;2023-10-08T04:57:00;11.97;;;6.23;;
948;SDS011;461;51.436;7.312;2023-10-08T04:59:29;11.73;;;5.97;;
948;SDS011;461;51.436;7.312;2023-10-08T05:02:02;8.80;;;5.93;;
948;SDS011;461;51.436;7.312;2023-10-08T05:04:44;9.53;;;5.83;;
948;SDS011;461;51.436;7.312;2023-10-08T05:07:16;11.67;;;6.30;;
948;SDS011;461;51.436;7.312;2023-10-08T05:09:46;14.13;;;5.80;;
948;SDS011;461;51.436;7.312;2023-10-08T05:12:37;10.07;;;6.37;;
948;SDS011;461;51.436;7.312;2023-10-08T05:15:11;14.70;;;6.70;;
948;SDS011;461;51.436;7.312;2023-10-08T05:17:42;12.57;;;6.30;;
948;SDS011;461;51.436;7.312;2023-10-08T05:20:32;12.10;;;6.30;;
948;SDS011;461;51.436;7.312;2023-10-08T05:23:13;13.93;;;5.93;;
948;SDS011;461;51.436;7.312;2023-10-08T05:25:49;15.10;;;6.40;;
948;SDS011;461;51.436;7.312;2023-10-08T05:28:23;11.40;;;6.20;;
948;SDS011;461;51.436;7.312;2023-10-08T05:30:50;14.03;;;6.17;;
948;SDS011;461;51.436;7.312;2023-10-08T05:33:30;15.40;;;6.70;;
948;SDS011;461;51.436;7.312;2023-10-08T05:36:15;13.17;;;6.57;;
948;SDS011;461;51.436;7.312;2023-10-08T05:38:52;13.27;;;6.23;;
948;SDS011;461;51.436;7.312;2023-10-08T05:41:37;10.63;;;5.73;;
948;SDS011;461;51.436;7.312;2023-10-08T05:44:07;13.30;;;5.90;;
948;SDS011;461;51.436;7.312;2023-10-08T05:46:45;8.47;;;5.40;;
948;SDS011;461;51.436;7.312;2023-10-08T05:49:20;13.30;;;7.30;;
948;SDS011;461;51.436;7.312;2023-10-08T05:51:56;14.80;;;6.80;;
948;SDS011;461;51.436;7.312;2023-10-08T05:54:25;12.73;;;6.40;;
948;SDS011;461;51.436;7.312;2023-10-08T05:57:01;12.07;;;5.80;;
948;SDS011;461;51.436;7.312;2023-10-08T05:59:36;12.20;;;6.67;;
948;SDS011;461;51.436;7.312;2023-10-08T06:02:18;13.97;;;6.03;;
948;SDS011;461;51.436;7.312;2023-10-08T06:04:53;8.73;;;5.33;;
948;SDS011;461;51.436;7.312;2023-10-08T06:07:46;8.83;;;5.53;;
948;SDS011;461;51.436;7.312;2023-10-08T06:10:19;8.67;;;5.40;;
948;SDS011;461;51.436;7.312;2023-10-08T06:13:12;9.63;;;5.73;;
948;SDS011;461;51.436;7.312;2023-10-08T06:15:43;13.37;;;6.47;;
948;SDS011;461;51.436;7.312;2023-10-08T06:18:25;11.53;;;5.60;;
948;SDS011;461;51.436;7.312;2023-10-08T06:20:59;9.33;;;5.57;;
948;SDS011;461;51.436;7.312;2023-10-08T06:23:29;9.83;;;6.20;;
948;SDS011;461;51.436;7.312;2023-10-08T06:28:41;16.53;;;5.27;;
948;SDS011;461;51.436;7.312;2023-10-08T06:31:08;9.00;;;5.23;;
948;SDS011;461;51.436;7.312;2023-10-08T06:33:52;13.97;;;6.07;;
948;SDS011;461;51.436;7.312;2023-10-08T06:36:35;12.93;;;6.00;;
948;SDS011;461;51.436;7.312;2023-10-08T06:42:18;15.60;;;5.63;;
948;SDS011;461;51.436;7.312;2023-10-08T06:44:58;11.37;;;5.40;;
948;SDS011;461;51.436;7.312;2023-10-08T06:47:37;17.23;;;5.97;;
948;SDS011;461;51.436;7.312;2023-10-08T06:50:05;11.60;;;5.60;;
948;SDS011;461;51.436;7.312;2023-10-08T06:52:36;13.37;;;6.37;;
948;SDS011;461;51.436;7.312;2023-10-08T06:55:02;14.40;;;5.60;;
948;SDS011;461;51.436;7.312;2023-10-08T06:57:29;8.93;;;5.50;;
948;SDS011;461;51.436;7.312;2023-10-08T06:59:58;14.13;;;6.27;;
948;SDS011;461;51.436;7.312;2023-10-08T07:02:25;10.10;;;5.23;;
948;SDS011;461;51.436;7.312;2023-10-08T07:04:51;11.93;;;5.80;;
948;SDS011;461;51.436;7.312;2023-10-08T07:07:17;9.50;;;5.77;;
948;SDS011;461;51.436;7.312;2023-10-08T07:09:43;12.17;;;5.53;;
948;SDS011;461;51.436;7.312;2023-10-08T07:12:09;14.73;;;5.53;;
948;SDS011;461;51.436;7.312;2023-10-08T07:14:39;11.77;;;5.83;;
948;SDS011;461;51.436;7.312;2023-10-08T07:17:06;13.57;;;6.50;;
948;SDS011;461;51.436;7.312;2023-10-08T07:19:33;18.93;;;6.70;;
948;SDS011;461;51.436;7.312;2023-10-08T07:22:02;12.63;;;5.60;;
948;SDS011;461;51.436;7.312;2023-10-08T07:24:33;13.87;;;5.70;;
948;SDS011;461;51.436;7.312;2023-10-08T07:27:01;14.50;;;6.67;;
948;SDS011;461;51.436;7.312;2023-10-08T07:29:33;20.03;;;9.10;;
948;SDS011;461;51.436;7.312;2023-10-08T07:32:00;22.73;;;11.13;;
948;SDS011;461;51.436;7.312;2023-10-08T07:34:35;25.10;;;9.63;;
948;SDS011;461;51.436;7.312;2023-10-08T07:37:01;16.13;;;8.33;;
948;SDS011;461;51.436;7.312;2023-10-08T07:39:27;21.20;;;9.67;;
948;SDS011;461;51.436;7.312;2023-10-08T07:41:56;17.20;;;8.00;;
948;SDS011;461;51.436;7.312;2023-10-08T07:44:24;20.53;;;8.67;;
948;SDS011;461;51.436;7.312;2023-10-08T07:46:53;17.87;;;9.00;;
948;SDS011;461;51.436;7.312;2023-10-08T07:49:19;15.40;;;8.03;;
948;SDS011;461;51.436;7.312;2023-10-08T07:51:48;25.20;;;11.37;;
948;SDS011;461;51.436;7.312;2023-10-08T07:54:20;18.47;;;12.00;;
948;SDS011;461;51.436;7.312;2023-10-08T07:56:51;17.80;;;12.70;;
948;SDS011;461;51.436;7.312;2023-10-08T07:59:24;18.70;;;10.17;;
948;SDS011;461;51.436;7.312;2023-10-08T08:01:50;9.90;;;8.30;;
948;SDS011;461;51.436;7.312;2023-10-08T08:04:17;8.17;;;7.10;;
948;SDS011;461;51.436;7.312;2023-10-08T08:06:50;10.40;;;6.40;;
948;SDS011;461;51.436;7.312;2023-10-08T08:09:18;22.27;;;6.90;;
948;SDS011;461;51.436;7.312;2023-10-08T08:11:48;12.87;;;6.27;;
948;SDS011;461;51.436;7.312;2023-10-08T08:14:15;8.47;;;6.40;;
948;SDS011;461;51.436;7.312;2023-10-08T08:16:49;12.47;;;6.13;;
948;SDS011;461;51.436;7.312;2023-10-08T08:19:16;8.43;;;6.27;;
948;SDS011;461;51.436;7.312;2023-10-08T08:21:49;8.00;;;6.07;;
948;SDS011;461;51.436;7.312;2023-10-08T08:24:17;9.33;;;5.93;;
948;SDS011;461;51.436;7.312;2023-10-08T08:26:57;10.37;;;5.43;;
948;SDS011;461;51.436;7.312;2023-10-08T08:29:51;7.87;;;5.10;;
948;SDS011;461;51.436;7.312;2023-10-08T08:32:21;8.83;;;4.30;;
948;SDS011;461;51.436;7.312;2023-10-08T08:34:48;8.60;;;4.97;;
948;SDS011;461;51.436;7.312;2023-10-08T08:37:17;10.10;;;5.60;;
948;SDS011;461;51.436;7.312;2023-10-08T08:39:43;10.00;;;4.83;;
948;SDS011;461;51.436;7.312;2023-10-08T08:42:10;5.93;;;4.30;;
948;SDS011;461;51.436;7.312;2023-10-08T08:44:41;6.67;;;4.30;;
948;SDS011;461;51.436;7.312;2023-10-08T08:47:14;11.70;;;6.03;;
948;SDS011;461;51.436;7.312;2023-10-08T08:49:43;9.07;;;4.70;;
948;SDS011;461;51.436;7.312;2023-10-08T08:52:13;4.30;;;3.70;;
948;SDS011;461;51.436;7.312;2023-10-08T08:54:40;6.00;;;3.70;;
948;SDS011;461;51.436;7.312;2023-10-08T08:57:10;6.50;;;3.43;;
948;SDS011;461;51.436;7.312;2023-10-08T09:00:00;4.20;;;3.03;;
948;SDS011;461;51.436;7.312;2023-10-08T09:02:33;5.80;;;3.00;;
948;SDS011;461;51.436;7.312;2023-10-08T09:05:02;4.40;;;2.50;;
948;SDS011;461;51.436;7.312;2023-10-08T09:07:57;3.87;;;2.70;;
948;SDS011;461;51.436;7.312;2023-10-08T09:10:28;3.00;;;2.70;;
948;SDS011;461;51.436;7.312;2023-10-08T09:13:07;5.00;;;2.70;;
948;SDS011;461;51.436;7.312;2023-10-08T09:15:39;3.20;;;2.40;;
948;SDS011;461;51.436;7.312;2023-10-08T09:18:09;5.20;;;2.70;;
948;SDS011;461;51.436;7.312;2023-10-08T09:24:07;2.33;;;1.83;;
948;SDS011;461;51.436;7.312;2023-10-08T09:30:25;2.10;;;1.83;;
948;SDS011;461;51.436;7.312;2023-10-08T09:36:34;1.97;;;1.20;;
948;SDS011;461;51.436;7.312;2023-10-08T09:39:01;1.67;;;1.23;;
948;SDS011;461;51.436;7.312;2023-10-08T09:41:37;1.40;;;1.30;;
948;SDS011;461;51.436;7.312;2023-10-08T09:44:06;1.40;;;1.20;;
948;SDS011;461;51.436;7.312;2023-10-08T09:46:36;1.07;;;0.97;;
948;SDS011;461;51.436;7.312;2023-10-08T09:49:06;1.37;;;1.20;;
948;SDS011;461;51.436;7.312;2023-10-08T09:51:35;2.20;;;1.00;;
948;SDS011;461;51.436;7.312;2023-10-08T09:57:28;1.30;;;1.17;;
948;SDS011;461;51.436;7.312;2023-10-08T10:00:00;3.13;;;1.10;;
948;SDS011;461;51.436;7.312;2023-10-08T10:26:48;4.87;;;2.00;;
948;SDS011;461;51.436;7.312;2023-10-08T10:29:19;2.60;;;1.83;;
948;SDS011;461;51.436;7.312;2023-10-08T10:31:48;1.47;;;1.37;;
948;SDS011;461;51.436;7.312;2023-10-08T10:34:26;4.30;;;2.20;;
948;SDS011;461;51.436;7.312;2023-10-08T10:36:56;4.23;;;1.87;;
948;SDS011;461;51.436;7.312;2023-10-08T10:39:36;1.50;;;1.30;;
948;SDS011;461;51.436;7.312;2023-10-08T10:42:27;2.43;;;1.57;;
948;SDS011;461;51.436;7.312;2023-10-08T10:45:03;1.77;;;1.40;;
948;SDS011;461;51.436;7.312;2023-10-08T10:47:34;5.33;;;1.27;;
948;SDS011;461;51.436;7.312;2023-10-08T10:50:14;1.57;;;1.30;;
948;SDS011;461;51.436;7.312;2023-10-08T10:53:00;1.63;;;1.40;;
948;SDS011;461;51.436;7.312;2023-10-08T10:55:44;2.10;;;1.40;;
948;SDS011;461;51.436;7.312;2023-10-08T10:58:25;3.03;;;1.30;;
948;SDS011;461;51.436;7.312;2023-10-08T11:01:03;9.03;;;1.80;;
948;SDS011;461;51.436;7.312;2023-10-08T11:03:34;2.00;;;1.30;;
948;SDS011;461;51.436;7.312;2023-10-08T11:06:03;2.30;;;1.30;;
948;SDS011;461;51.436;7.312;2023-10-08T11:08:40;1.40;;;1.27;;
948;SDS011;461;51.436;7.312;2023-10-08T11:11:11;2.77;;;1.30;;
948;SDS011;461;51.436;7.312;2023-10-08T11:13:40;2.00;;;1.27;;
948;SDS011;461;51.436;7.312;2023-10-08T11:16:17;3.83;;;1.13;;
948;SDS011;461;51.436;7.312;2023-10-08T11:18:55;2.10;;;1.13;;
948;SDS011;461;51.436;7.312;2023-10-08T11:21:47;2.43;;;1.40;;
948;SDS011;461;51.436;7.312;2023-10-08T11:24:39;1.83;;;1.20;;
948;SDS011;461;51.436;7.312;2023-10-08T11:27:31;3.43;;;1.27;;
